sensor_id;sensor_type;location;lat;lon;timestamp;temperature;humidity
792;DHT22;379;49.022;12.148;2022-09-21T00:00:25;3.70;99.90
792;DHT22;379;49.022;12.148;2022-09-21T00:02:55;3.60;99.90
792;DHT22;379;49.022;12.148;2022-09-21T00:05:22;3.50;99.90
792;DHT22;379;49.022;12.148;2022-09-21T00:07:49;3.40;99.90
792;DHT22;379;49.022;12.148;2022-09-21T00:10:17;3.40;99.90
792;DHT22;379;49.022;12.148;2022-09-21T00:12:44;3.40;99.90
792;DHT22;379;49.022;12.148;2022-09-21T00:15:13;3.40;99.90
792;DHT22;379;49.022;12.148;2022-09-21T00:17:42;3.30;99.90
792;DHT22;379;49.022;12.148;2022-09-21T00:20:09;3.40;99.90
792;DHT22;379;49.022;12.148;2022-09-21T00:22:36;3.40;99.90
792;DHT22;379;49.022;12.148;2022-09-21T00:25:04;3.30;99.90
792;DHT22;379;49.022;12.148;2022-09-21T00:27:32;3.30;99.90
792;DHT22;379;49.022;12.148;2022-09-21T00:29:59;3.20;99.90
792;DHT22;379;49.022;12.148;2022-09-21T00:32:28;3.20;99.90
792;DHT22;379;49.022;12.148;2022-09-21T00:34:56;3.30;99.90
792;DHT22;379;49.022;12.148;2022-09-21T00:37:23;3.50;99.90
792;DHT22;379;49.022;12.148;2022-09-21T00:39:50;3.60;99.90
792;DHT22;379;49.022;12.148;2022-09-21T00:42:19;3.60;99.90
792;DHT22;379;49.022;12.148;2022-09-21T00:44:47;3.70;99.90
792;DHT22;379;49.022;12.148;2022-09-21T00:47:16;3.60;99.90
792;DHT22;379;49.022;12.148;2022-09-21T00:49:45;3.60;99.90
792;DHT22;379;49.022;12.148;2022-09-21T00:52:15;3.60;99.90
792;DHT22;379;49.022;12.148;2022-09-21T00:54:47;3.60;99.90
792;DHT22;379;49.022;12.148;2022-09-21T00:57:17;3.60;99.90
792;DHT22;379;49.022;12.148;2022-09-21T00:59:46;3.70;99.90
792;DHT22;379;49.022;12.148;2022-09-21T01:02:14;3.70;99.90
792;DHT22;379;49.022;12.148;2022-09-21T01:04:41;3.80;99.90
792;DHT22;379;49.022;12.148;2022-09-21T01:07:10;3.80;99.90
792;DHT22;379;49.022;12.148;2022-09-21T01:09:39;3.80;99.90
792;DHT22;379;49.022;12.148;2022-09-21T01:12:16;3.90;99.90
792;DHT22;379;49.022;12.148;2022-09-21T01:15:02;3.90;99.90
792;DHT22;379;49.022;12.148;2022-09-21T01:17:37;3.90;99.90
792;DHT22;379;49.022;12.148;2022-09-21T01:20:33;3.90;99.90
792;DHT22;379;49.022;12.148;2022-09-21T01:23:15;3.80;99.90
792;DHT22;379;49.022;12.148;2022-09-21T01:25:54;3.70;99.90
792;DHT22;379;49.022;12.148;2022-09-21T01:28:35;3.60;99.90
792;DHT22;379;49.022;12.148;2022-09-21T01:31:09;3.40;99.90
792;DHT22;379;49.022;12.148;2022-09-21T01:33:42;3.30;99.90
792;DHT22;379;49.022;12.148;2022-09-21T01:36:14;3.20;99.90
792;DHT22;379;49.022;12.148;2022-09-21T01:38:44;3.30;99.90
792;DHT22;379;49.022;12.148;2022-09-21T01:41:13;3.30;99.90
792;DHT22;379;49.022;12.148;2022-09-21T01:43:42;3.40;99.90
792;DHT22;379;49.022;12.148;2022-09-21T01:46:14;3.30;99.90
792;DHT22;379;49.022;12.148;2022-09-21T01:48:46;3.30;99.90
792;DHT22;379;49.022;12.148;2022-09-21T01:51:15;3.30;99.90
792;DHT22;379;49.022;12.148;2022-09-21T01:53:46;3.20;99.90
792;DHT22;379;49.022;12.148;2022-09-21T01:56:17;3.10;99.90
792;DHT22;379;49.022;12.148;2022-09-21T01:58:51;3.20;99.90
792;DHT22;379;49.022;12.148;2022-09-21T02:01:21;3.20;99.90
792;DHT22;379;49.022;12.148;2022-09-21T02:03:51;3.20;99.90
792;DHT22;379;49.022;12.148;2022-09-21T02:06:20;3.10;99.90
792;DHT22;379;49.022;12.148;2022-09-21T02:08:47;3.00;99.90
792;DHT22;379;49.022;12.148;2022-09-21T02:11:14;2.90;99.90
792;DHT22;379;49.022;12.148;2022-09-21T02:13:43;2.80;99.90
792;DHT22;379;49.022;12.148;2022-09-21T02:16:27;2.80;99.90
792;DHT22;379;49.022;12.148;2022-09-21T02:19:06;2.90;99.90
792;DHT22;379;49.022;12.148;2022-09-21T02:21:42;3.00;99.90
792;DHT22;379;49.022;12.148;2022-09-21T02:24:14;3.20;99.90
792;DHT22;379;49.022;12.148;2022-09-21T02:26:51;3.40;99.90
792;DHT22;379;49.022;12.148;2022-09-21T02:29:21;3.60;99.90
792;DHT22;379;49.022;12.148;2022-09-21T02:31:56;3.60;99.90
792;DHT22;379;49.022;12.148;2022-09-21T02:34:31;3.70;99.90
792;DHT22;379;49.022;12.148;2022-09-21T02:37:02;3.70;99.90
792;DHT22;379;49.022;12.148;2022-09-21T02:39:36;3.60;99.90
792;DHT22;379;49.022;12.148;2022-09-21T02:42:08;3.60;99.90
792;DHT22;379;49.022;12.148;2022-09-21T02:44:37;3.50;99.90
792;DHT22;379;49.022;12.148;2022-09-21T02:47:11;3.50;99.90
792;DHT22;379;49.022;12.148;2022-09-21T02:49:42;3.50;99.90
792;DHT22;379;49.022;12.148;2022-09-21T02:52:13;3.50;99.90
792;DHT22;379;49.022;12.148;2022-09-21T02:54:44;3.50;99.90
792;DHT22;379;49.022;12.148;2022-09-21T02:57:13;3.50;99.90
792;DHT22;379;49.022;12.148;2022-09-21T02:59:41;3.50;99.90
792;DHT22;379;49.022;12.148;2022-09-21T03:02:11;3.50;99.90
792;DHT22;379;49.022;12.148;2022-09-21T03:04:38;3.50;99.90
792;DHT22;379;49.022;12.148;2022-09-21T03:07:05;3.50;99.90
792;DHT22;379;49.022;12.148;2022-09-21T03:09:32;3.50;99.90
792;DHT22;379;49.022;12.148;2022-09-21T03:11:59;3.50;99.90
792;DHT22;379;49.022;12.148;2022-09-21T03:14:25;3.50;99.90
792;DHT22;379;49.022;12.148;2022-09-21T03:16:52;3.50;99.90
792;DHT22;379;49.022;12.148;2022-09-21T03:19:20;3.50;99.90
792;DHT22;379;49.022;12.148;2022-09-21T03:21:47;3.50;99.90
792;DHT22;379;49.022;12.148;2022-09-21T03:24:14;3.50;99.90
792;DHT22;379;49.022;12.148;2022-09-21T03:27:01;3.50;99.90
792;DHT22;379;49.022;12.148;2022-09-21T03:29:27;3.50;99.90
792;DHT22;379;49.022;12.148;2022-09-21T03:31:54;3.50;99.90
792;DHT22;379;49.022;12.148;2022-09-21T03:34:22;3.50;99.90
792;DHT22;379;49.022;12.148;2022-09-21T03:36:49;3.40;99.90
792;DHT22;379;49.022;12.148;2022-09-21T03:39:16;3.40;99.90
792;DHT22;379;49.022;12.148;2022-09-21T03:41:43;3.40;99.90
792;DHT22;379;49.022;12.148;2022-09-21T03:44:09;3.40;99.90
792;DHT22;379;49.022;12.148;2022-09-21T03:46:37;3.30;99.90
792;DHT22;379;49.022;12.148;2022-09-21T03:49:03;3.30;99.90
792;DHT22;379;49.022;12.148;2022-09-21T03:51:31;3.30;99.90
792;DHT22;379;49.022;12.148;2022-09-21T03:53:58;3.30;99.90
792;DHT22;379;49.022;12.148;2022-09-21T03:56:25;3.30;99.90
792;DHT22;379;49.022;12.148;2022-09-21T03:58:51;3.30;99.90
792;DHT22;379;49.022;12.148;2022-09-21T04:01:18;3.30;99.90
792;DHT22;379;49.022;12.148;2022-09-21T04:03:45;3.30;99.90
792;DHT22;379;49.022;12.148;2022-09-21T04:06:12;3.30;99.90
792;DHT22;379;49.022;12.148;2022-09-21T04:08:40;3.30;99.90
792;DHT22;379;49.022;12.148;2022-09-21T04:11:08;3.30;99.90
792;DHT22;379;49.022;12.148;2022-09-21T04:13:36;3.30;99.90
792;DHT22;379;49.022;12.148;2022-09-21T04:16:03;3.30;99.90
792;DHT22;379;49.022;12.148;2022-09-21T04:18:30;3.20;99.90
792;DHT22;379;49.022;12.148;2022-09-21T04:20:57;3.20;99.90
792;DHT22;379;49.022;12.148;2022-09-21T04:23:23;3.20;99.90
792;DHT22;379;49.022;12.148;2022-09-21T04:25:53;3.20;99.90
792;DHT22;379;49.022;12.148;2022-09-21T04:28:20;3.10;99.90
792;DHT22;379;49.022;12.148;2022-09-21T04:30:47;3.20;99.90
792;DHT22;379;49.022;12.148;2022-09-21T04:33:13;3.10;99.90
792;DHT22;379;49.022;12.148;2022-09-21T04:35:40;3.20;99.90
792;DHT22;379;49.022;12.148;2022-09-21T04:38:07;3.20;99.90
792;DHT22;379;49.022;12.148;2022-09-21T04:40:34;3.20;99.90
792;DHT22;379;49.022;12.148;2022-09-21T04:43:02;3.10;99.90
792;DHT22;379;49.022;12.148;2022-09-21T04:45:29;3.20;99.90
792;DHT22;379;49.022;12.148;2022-09-21T04:47:56;3.10;99.90
792;DHT22;379;49.022;12.148;2022-09-21T04:50:23;3.10;99.90
792;DHT22;379;49.022;12.148;2022-09-21T04:52:50;3.10;99.90
792;DHT22;379;49.022;12.148;2022-09-21T04:55:16;3.10;99.90
792;DHT22;379;49.022;12.148;2022-09-21T04:57:44;3.10;99.90
792;DHT22;379;49.022;12.148;2022-09-21T05:00:13;3.20;99.90
792;DHT22;379;49.022;12.148;2022-09-21T05:02:40;3.20;99.90
792;DHT22;379;49.022;12.148;2022-09-21T05:05:07;3.20;99.90
792;DHT22;379;49.022;12.148;2022-09-21T05:07:34;3.20;99.90
792;DHT22;379;49.022;12.148;2022-09-21T05:10:00;3.20;99.90
792;DHT22;379;49.022;12.148;2022-09-21T05:12:29;3.20;99.90
792;DHT22;379;49.022;12.148;2022-09-21T05:14:56;3.20;99.90
792;DHT22;379;49.022;12.148;2022-09-21T05:17:24;3.20;99.90
792;DHT22;379;49.022;12.148;2022-09-21T05:19:51;3.20;99.90
792;DHT22;379;49.022;12.148;2022-09-21T05:22:19;3.30;99.90
792;DHT22;379;49.022;12.148;2022-09-21T05:24:46;3.30;99.90
792;DHT22;379;49.022;12.148;2022-09-21T05:27:13;3.40;99.90
792;DHT22;379;49.022;12.148;2022-09-21T05:29:40;3.50;99.90
792;DHT22;379;49.022;12.148;2022-09-21T05:32:12;3.50;99.90
792;DHT22;379;49.022;12.148;2022-09-21T05:34:49;3.60;99.90
792;DHT22;379;49.022;12.148;2022-09-21T05:37:36;3.70;99.90
792;DHT22;379;49.022;12.148;2022-09-21T05:40:05;3.80;99.90
792;DHT22;379;49.022;12.148;2022-09-21T05:42:32;3.80;99.90
792;DHT22;379;49.022;12.148;2022-09-21T05:45:00;3.80;99.90
792;DHT22;379;49.022;12.148;2022-09-21T05:47:36;3.80;99.90
792;DHT22;379;49.022;12.148;2022-09-21T05:50:17;3.80;99.90
792;DHT22;379;49.022;12.148;2022-09-21T05:52:51;3.80;99.90
792;DHT22;379;49.022;12.148;2022-09-21T05:55:28;3.90;99.90
792;DHT22;379;49.022;12.148;2022-09-21T05:58:04;3.80;99.90
792;DHT22;379;49.022;12.148;2022-09-21T06:00:41;3.90;99.90
792;DHT22;379;49.022;12.148;2022-09-21T06:03:25;4.00;99.90
792;DHT22;379;49.022;12.148;2022-09-21T06:05:54;4.10;99.90
792;DHT22;379;49.022;12.148;2022-09-21T06:08:21;4.30;99.90
792;DHT22;379;49.022;12.148;2022-09-21T06:10:48;4.60;99.90
792;DHT22;379;49.022;12.148;2022-09-21T06:13:15;4.50;99.90
792;DHT22;379;49.022;12.148;2022-09-21T06:15:42;4.30;99.90
792;DHT22;379;49.022;12.148;2022-09-21T06:18:09;4.10;99.90
792;DHT22;379;49.022;12.148;2022-09-21T06:20:36;4.10;99.90
792;DHT22;379;49.022;12.148;2022-09-21T06:23:06;4.20;99.90
792;DHT22;379;49.022;12.148;2022-09-21T06:25:33;4.30;99.90
792;DHT22;379;49.022;12.148;2022-09-21T06:28:03;4.40;99.90
792;DHT22;379;49.022;12.148;2022-09-21T06:30:31;4.40;99.90
792;DHT22;379;49.022;12.148;2022-09-21T06:32:59;4.40;99.90
792;DHT22;379;49.022;12.148;2022-09-21T06:35:26;4.40;99.90
792;DHT22;379;49.022;12.148;2022-09-21T06:37:57;4.40;99.90
792;DHT22;379;49.022;12.148;2022-09-21T06:40:25;4.40;99.90
792;DHT22;379;49.022;12.148;2022-09-21T06:42:55;4.50;99.90
792;DHT22;379;49.022;12.148;2022-09-21T06:45:22;4.60;99.90
792;DHT22;379;49.022;12.148;2022-09-21T06:47:49;4.70;99.90
792;DHT22;379;49.022;12.148;2022-09-21T06:50:15;4.80;99.90
792;DHT22;379;49.022;12.148;2022-09-21T06:52:42;4.90;99.90
792;DHT22;379;49.022;12.148;2022-09-21T06:55:09;5.00;99.90
792;DHT22;379;49.022;12.148;2022-09-21T06:57:37;5.00;99.90
792;DHT22;379;49.022;12.148;2022-09-21T07:00:06;5.10;99.90
792;DHT22;379;49.022;12.148;2022-09-21T07:02:33;5.40;99.90
792;DHT22;379;49.022;12.148;2022-09-21T07:05:00;5.50;99.90
792;DHT22;379;49.022;12.148;2022-09-21T07:07:28;5.50;99.90
792;DHT22;379;49.022;12.148;2022-09-21T07:09:56;5.60;99.90
792;DHT22;379;49.022;12.148;2022-09-21T07:12:26;5.60;99.90
792;DHT22;379;49.022;12.148;2022-09-21T07:14:54;5.70;99.90
792;DHT22;379;49.022;12.148;2022-09-21T07:17:21;5.90;99.90
792;DHT22;379;49.022;12.148;2022-09-21T07:19:48;6.00;99.90
792;DHT22;379;49.022;12.148;2022-09-21T07:22:15;6.20;99.90
792;DHT22;379;49.022;12.148;2022-09-21T07:24:41;6.30;99.90
792;DHT22;379;49.022;12.148;2022-09-21T07:27:08;6.50;99.90
792;DHT22;379;49.022;12.148;2022-09-21T07:29:35;6.40;99.90
792;DHT22;379;49.022;12.148;2022-09-21T07:32:03;6.40;99.90
792;DHT22;379;49.022;12.148;2022-09-21T07:34:34;6.60;99.90
792;DHT22;379;49.022;12.148;2022-09-21T07:37:01;6.70;99.90
792;DHT22;379;49.022;12.148;2022-09-21T07:39:28;7.10;99.90
792;DHT22;379;49.022;12.148;2022-09-21T07:41:55;7.50;99.90
792;DHT22;379;49.022;12.148;2022-09-21T07:44:22;7.70;99.90
792;DHT22;379;49.022;12.148;2022-09-21T07:46:49;7.90;99.90
792;DHT22;379;49.022;12.148;2022-09-21T07:49:18;8.10;99.90
792;DHT22;379;49.022;12.148;2022-09-21T07:51:44;8.20;99.90
792;DHT22;379;49.022;12.148;2022-09-21T07:54:11;8.30;99.90
792;DHT22;379;49.022;12.148;2022-09-21T07:56:39;8.30;99.90
792;DHT22;379;49.022;12.148;2022-09-21T07:59:06;8.40;99.90
792;DHT22;379;49.022;12.148;2022-09-21T08:01:33;8.80;99.90
792;DHT22;379;49.022;12.148;2022-09-21T08:04:01;9.00;99.90
792;DHT22;379;49.022;12.148;2022-09-21T08:06:30;9.10;99.90
792;DHT22;379;49.022;12.148;2022-09-21T08:08:58;9.10;99.90
792;DHT22;379;49.022;12.148;2022-09-21T08:11:26;9.20;99.90
792;DHT22;379;49.022;12.148;2022-09-21T08:13:56;9.30;99.90
792;DHT22;379;49.022;12.148;2022-09-21T08:16:24;9.50;99.90
792;DHT22;379;49.022;12.148;2022-09-21T08:18:51;9.40;99.90
792;DHT22;379;49.022;12.148;2022-09-21T08:21:18;9.30;99.90
792;DHT22;379;49.022;12.148;2022-09-21T08:23:47;9.10;99.90
792;DHT22;379;49.022;12.148;2022-09-21T08:26:15;9.20;99.90
792;DHT22;379;49.022;12.148;2022-09-21T08:28:44;9.30;99.90
792;DHT22;379;49.022;12.148;2022-09-21T08:31:13;9.10;99.90
792;DHT22;379;49.022;12.148;2022-09-21T08:33:40;9.00;99.90
792;DHT22;379;49.022;12.148;2022-09-21T08:36:07;9.30;99.90
792;DHT22;379;49.022;12.148;2022-09-21T08:38:36;9.60;99.90
792;DHT22;379;49.022;12.148;2022-09-21T08:41:13;9.70;99.90
792;DHT22;379;49.022;12.148;2022-09-21T08:43:42;9.70;99.90
792;DHT22;379;49.022;12.148;2022-09-21T08:46:12;9.70;99.90
792;DHT22;379;49.022;12.148;2022-09-21T08:48:43;9.90;99.90
792;DHT22;379;49.022;12.148;2022-09-21T08:51:16;10.10;99.90
792;DHT22;379;49.022;12.148;2022-09-21T08:53:48;10.30;99.90
792;DHT22;379;49.022;12.148;2022-09-21T08:56:19;10.50;99.90
792;DHT22;379;49.022;12.148;2022-09-21T08:58:47;10.50;99.90
792;DHT22;379;49.022;12.148;2022-09-21T09:01:31;10.80;99.90
792;DHT22;379;49.022;12.148;2022-09-21T09:04:12;11.20;99.90
792;DHT22;379;49.022;12.148;2022-09-21T09:06:47;11.40;99.90
792;DHT22;379;49.022;12.148;2022-09-21T09:09:29;11.40;99.90
792;DHT22;379;49.022;12.148;2022-09-21T09:12:18;11.50;99.90
792;DHT22;379;49.022;12.148;2022-09-21T09:18:08;11.40;99.90
792;DHT22;379;49.022;12.148;2022-09-21T09:20:38;10.80;99.90
792;DHT22;379;49.022;12.148;2022-09-21T09:23:11;10.50;99.90
792;DHT22;379;49.022;12.148;2022-09-21T09:25:42;10.20;99.90
792;DHT22;379;49.022;12.148;2022-09-21T09:28:21;10.00;99.90
792;DHT22;379;49.022;12.148;2022-09-21T09:30:56;9.80;99.90
792;DHT22;379;49.022;12.148;2022-09-21T09:33:28;9.60;99.90
792;DHT22;379;49.022;12.148;2022-09-21T09:36:01;9.50;99.90
792;DHT22;379;49.022;12.148;2022-09-21T09:38:31;9.30;99.90
792;DHT22;379;49.022;12.148;2022-09-21T09:41:12;9.20;99.90
792;DHT22;379;49.022;12.148;2022-09-21T09:43:52;9.20;99.90
792;DHT22;379;49.022;12.148;2022-09-21T09:46:29;9.20;99.90
792;DHT22;379;49.022;12.148;2022-09-21T09:49:16;9.30;99.90
792;DHT22;379;49.022;12.148;2022-09-21T09:51:45;9.30;99.90
792;DHT22;379;49.022;12.148;2022-09-21T09:54:14;9.40;99.90
792;DHT22;379;49.022;12.148;2022-09-21T09:56:42;9.50;99.90
792;DHT22;379;49.022;12.148;2022-09-21T09:59:17;9.60;99.90
792;DHT22;379;49.022;12.148;2022-09-21T10:01:45;9.70;99.90
792;DHT22;379;49.022;12.148;2022-09-21T10:04:13;9.80;99.90
792;DHT22;379;49.022;12.148;2022-09-21T10:06:41;10.00;99.90
792;DHT22;379;49.022;12.148;2022-09-21T10:09:19;10.30;99.90
792;DHT22;379;49.022;12.148;2022-09-21T10:11:46;10.80;99.90
792;DHT22;379;49.022;12.148;2022-09-21T10:14:18;11.20;99.90
792;DHT22;379;49.022;12.148;2022-09-21T10:16:48;11.50;99.90
792;DHT22;379;49.022;12.148;2022-09-21T10:19:20;11.80;99.90
792;DHT22;379;49.022;12.148;2022-09-21T10:21:50;11.90;99.90
792;DHT22;379;49.022;12.148;2022-09-21T10:24:21;12.00;99.90
792;DHT22;379;49.022;12.148;2022-09-21T10:26:50;12.10;99.90
792;DHT22;379;49.022;12.148;2022-09-21T10:29:30;12.10;99.90
792;DHT22;379;49.022;12.148;2022-09-21T10:31:59;12.20;99.90
792;DHT22;379;49.022;12.148;2022-09-21T10:34:27;12.30;99.90
792;DHT22;379;49.022;12.148;2022-09-21T10:36:56;12.40;99.90
792;DHT22;379;49.022;12.148;2022-09-21T10:39:26;12.50;99.90
792;DHT22;379;49.022;12.148;2022-09-21T10:41:59;12.70;99.90
792;DHT22;379;49.022;12.148;2022-09-21T10:44:37;12.80;99.90
792;DHT22;379;49.022;12.148;2022-09-21T10:47:16;13.00;99.90
792;DHT22;379;49.022;12.148;2022-09-21T10:49:45;13.40;99.90
792;DHT22;379;49.022;12.148;2022-09-21T10:52:15;13.70;99.90
792;DHT22;379;49.022;12.148;2022-09-21T10:54:44;14.10;99.90
792;DHT22;379;49.022;12.148;2022-09-21T10:57:16;14.60;99.90
792;DHT22;379;49.022;12.148;2022-09-21T10:59:45;15.00;99.90
792;DHT22;379;49.022;12.148;2022-09-21T11:02:35;15.20;99.10
792;DHT22;379;49.022;12.148;2022-09-21T11:05:09;15.40;98.70
792;DHT22;379;49.022;12.148;2022-09-21T11:07:43;15.30;96.90
792;DHT22;379;49.022;12.148;2022-09-21T11:10:18;15.30;94.20
792;DHT22;379;49.022;12.148;2022-09-21T11:12:55;15.20;93.50
792;DHT22;379;49.022;12.148;2022-09-21T11:15:37;15.20;94.60
792;DHT22;379;49.022;12.148;2022-09-21T11:18:12;15.10;92.30
792;DHT22;379;49.022;12.148;2022-09-21T11:20:44;15.10;91.80
792;DHT22;379;49.022;12.148;2022-09-21T11:23:22;15.10;91.70
792;DHT22;379;49.022;12.148;2022-09-21T11:25:57;15.20;92.40
792;DHT22;379;49.022;12.148;2022-09-21T11:28:29;15.30;92.30
792;DHT22;379;49.022;12.148;2022-09-21T11:31:14;15.40;92.60
792;DHT22;379;49.022;12.148;2022-09-21T11:33:54;15.50;91.80
792;DHT22;379;49.022;12.148;2022-09-21T11:36:31;15.70;91.40
792;DHT22;379;49.022;12.148;2022-09-21T11:39:05;15.80;90.10
792;DHT22;379;49.022;12.148;2022-09-21T11:41:53;16.00;90.80
792;DHT22;379;49.022;12.148;2022-09-21T11:44:30;16.10;88.00
792;DHT22;379;49.022;12.148;2022-09-21T11:47:07;16.10;85.80
792;DHT22;379;49.022;12.148;2022-09-21T11:49:48;16.10;87.40
792;DHT22;379;49.022;12.148;2022-09-21T11:52:29;16.00;84.90
792;DHT22;379;49.022;12.148;2022-09-21T11:55:27;15.70;83.30
792;DHT22;379;49.022;12.148;2022-09-21T11:58:03;15.40;80.90
792;DHT22;379;49.022;12.148;2022-09-21T12:00:42;14.90;82.80
792;DHT22;379;49.022;12.148;2022-09-21T12:03:29;14.60;84.90
792;DHT22;379;49.022;12.148;2022-09-21T12:06:16;14.20;82.70
792;DHT22;379;49.022;12.148;2022-09-21T12:12:04;14.00;86.50
792;DHT22;379;49.022;12.148;2022-09-21T12:14:36;14.10;86.40
792;DHT22;379;49.022;12.148;2022-09-21T12:17:10;14.10;85.30
792;DHT22;379;49.022;12.148;2022-09-21T12:19:44;14.30;87.00
792;DHT22;379;49.022;12.148;2022-09-21T12:22:16;14.40;87.40
792;DHT22;379;49.022;12.148;2022-09-21T12:24:46;14.60;87.10
792;DHT22;379;49.022;12.148;2022-09-21T12:27:26;14.80;87.60
792;DHT22;379;49.022;12.148;2022-09-21T12:29:57;15.10;86.30
792;DHT22;379;49.022;12.148;2022-09-21T12:32:43;15.40;85.20
792;DHT22;379;49.022;12.148;2022-09-21T12:35:20;15.80;85.70
792;DHT22;379;49.022;12.148;2022-09-21T12:37:53;16.20;82.50
792;DHT22;379;49.022;12.148;2022-09-21T12:40:26;16.40;79.20
792;DHT22;379;49.022;12.148;2022-09-21T12:42:58;16.70;75.80
792;DHT22;379;49.022;12.148;2022-09-21T12:45:28;16.90;70.10
792;DHT22;379;49.022;12.148;2022-09-21T12:48:01;17.00;70.60
792;DHT22;379;49.022;12.148;2022-09-21T12:50:37;16.90;67.10
792;DHT22;379;49.022;12.148;2022-09-21T12:53:07;16.80;68.80
792;DHT22;379;49.022;12.148;2022-09-21T12:55:43;16.70;67.80
792;DHT22;379;49.022;12.148;2022-09-21T12:58:25;16.50;64.00
792;DHT22;379;49.022;12.148;2022-09-21T13:01:00;16.20;64.90
792;DHT22;379;49.022;12.148;2022-09-21T13:03:34;16.00;67.20
792;DHT22;379;49.022;12.148;2022-09-21T13:06:20;15.80;67.60
792;DHT22;379;49.022;12.148;2022-09-21T13:08:52;15.50;65.80
792;DHT22;379;49.022;12.148;2022-09-21T13:11:21;15.30;67.70
792;DHT22;379;49.022;12.148;2022-09-21T13:13:50;15.00;65.60
792;DHT22;379;49.022;12.148;2022-09-21T13:16:24;14.70;67.60
792;DHT22;379;49.022;12.148;2022-09-21T13:18:54;14.50;68.10
792;DHT22;379;49.022;12.148;2022-09-21T13:21:24;14.40;68.70
792;DHT22;379;49.022;12.148;2022-09-21T13:23:55;14.50;70.80
792;DHT22;379;49.022;12.148;2022-09-21T13:26:32;14.70;71.80
792;DHT22;379;49.022;12.148;2022-09-21T13:31:54;15.60;70.90
792;DHT22;379;49.022;12.148;2022-09-21T13:34:30;16.00;68.90
792;DHT22;379;49.022;12.148;2022-09-21T13:37:32;16.40;68.00
792;DHT22;379;49.022;12.148;2022-09-21T13:43:19;17.00;70.70
792;DHT22;379;49.022;12.148;2022-09-21T13:45:54;17.20;70.40
792;DHT22;379;49.022;12.148;2022-09-21T13:48:26;17.40;70.50
792;DHT22;379;49.022;12.148;2022-09-21T13:51:00;17.40;70.30
792;DHT22;379;49.022;12.148;2022-09-21T13:53:36;17.40;65.90
792;DHT22;379;49.022;12.148;2022-09-21T13:56:08;17.40;67.30
792;DHT22;379;49.022;12.148;2022-09-21T13:58:43;17.40;66.20
792;DHT22;379;49.022;12.148;2022-09-21T14:01:19;17.50;65.30
792;DHT22;379;49.022;12.148;2022-09-21T14:03:49;17.50;65.00
792;DHT22;379;49.022;12.148;2022-09-21T14:06:18;17.60;64.90
792;DHT22;379;49.022;12.148;2022-09-21T14:08:50;17.60;62.80
792;DHT22;379;49.022;12.148;2022-09-21T14:11:22;17.60;57.80
792;DHT22;379;49.022;12.148;2022-09-21T14:14:03;17.30;56.70
792;DHT22;379;49.022;12.148;2022-09-21T14:16:54;17.10;59.50
792;DHT22;379;49.022;12.148;2022-09-21T14:22:39;16.90;60.40
792;DHT22;379;49.022;12.148;2022-09-21T14:25:26;16.70;56.20
792;DHT22;379;49.022;12.148;2022-09-21T14:27:58;16.50;55.80
792;DHT22;379;49.022;12.148;2022-09-21T14:30:28;16.20;57.70
792;DHT22;379;49.022;12.148;2022-09-21T14:33:06;15.90;58.90
792;DHT22;379;49.022;12.148;2022-09-21T14:35:39;15.50;59.20
792;DHT22;379;49.022;12.148;2022-09-21T14:38:13;15.20;59.90
792;DHT22;379;49.022;12.148;2022-09-21T14:40:47;14.90;62.20
792;DHT22;379;49.022;12.148;2022-09-21T14:43:17;14.80;62.70
792;DHT22;379;49.022;12.148;2022-09-21T14:46:00;14.60;62.30
792;DHT22;379;49.022;12.148;2022-09-21T14:48:36;14.50;63.60
792;DHT22;379;49.022;12.148;2022-09-21T14:51:10;14.40;63.00
792;DHT22;379;49.022;12.148;2022-09-21T14:54:02;14.30;62.70
792;DHT22;379;49.022;12.148;2022-09-21T14:56:45;14.30;62.30
792;DHT22;379;49.022;12.148;2022-09-21T14:59:31;14.50;60.50
792;DHT22;379;49.022;12.148;2022-09-21T15:02:17;14.70;62.00
792;DHT22;379;49.022;12.148;2022-09-21T15:05:02;15.10;62.70
792;DHT22;379;49.022;12.148;2022-09-21T15:07:39;15.40;62.00
792;DHT22;379;49.022;12.148;2022-09-21T15:10:27;15.50;60.90
792;DHT22;379;49.022;12.148;2022-09-21T15:13:36;15.70;61.40
792;DHT22;379;49.022;12.148;2022-09-21T15:16:25;15.80;59.30
792;DHT22;379;49.022;12.148;2022-09-21T15:19:01;15.80;58.20
792;DHT22;379;49.022;12.148;2022-09-21T15:21:31;15.80;58.90
792;DHT22;379;49.022;12.148;2022-09-21T15:24:00;15.70;58.80
792;DHT22;379;49.022;12.148;2022-09-21T15:26:37;15.50;59.20
792;DHT22;379;49.022;12.148;2022-09-21T15:29:06;15.30;58.80
792;DHT22;379;49.022;12.148;2022-09-21T15:31:34;15.00;59.60
792;DHT22;379;49.022;12.148;2022-09-21T15:34:03;14.80;60.00
792;DHT22;379;49.022;12.148;2022-09-21T15:36:37;14.60;61.50
792;DHT22;379;49.022;12.148;2022-09-21T15:39:04;14.40;61.70
792;DHT22;379;49.022;12.148;2022-09-21T15:41:40;14.20;62.80
792;DHT22;379;49.022;12.148;2022-09-21T15:44:14;14.00;63.20
792;DHT22;379;49.022;12.148;2022-09-21T15:46:43;13.90;63.60
792;DHT22;379;49.022;12.148;2022-09-21T15:49:13;13.70;64.70
792;DHT22;379;49.022;12.148;2022-09-21T15:51:42;13.60;65.80
792;DHT22;379;49.022;12.148;2022-09-21T15:54:23;13.40;66.10
792;DHT22;379;49.022;12.148;2022-09-21T15:56:52;13.20;67.00
792;DHT22;379;49.022;12.148;2022-09-21T15:59:21;13.00;68.60
792;DHT22;379;49.022;12.148;2022-09-21T16:01:51;12.80;70.20
792;DHT22;379;49.022;12.148;2022-09-21T16:04:20;12.50;71.20
792;DHT22;379;49.022;12.148;2022-09-21T16:06:56;12.30;72.10
792;DHT22;379;49.022;12.148;2022-09-21T16:09:37;12.20;72.80
792;DHT22;379;49.022;12.148;2022-09-21T16:12:27;12.00;74.40
792;DHT22;379;49.022;12.148;2022-09-21T16:15:03;11.80;74.90
792;DHT22;379;49.022;12.148;2022-09-21T16:17:35;11.60;75.10
792;DHT22;379;49.022;12.148;2022-09-21T16:20:20;11.50;76.40
792;DHT22;379;49.022;12.148;2022-09-21T16:22:49;11.30;78.10
792;DHT22;379;49.022;12.148;2022-09-21T16:25:24;11.30;78.70
792;DHT22;379;49.022;12.148;2022-09-21T16:27:53;11.20;79.60
792;DHT22;379;49.022;12.148;2022-09-21T16:30:43;11.10;79.70
792;DHT22;379;49.022;12.148;2022-09-21T16:33:33;11.00;80.00
792;DHT22;379;49.022;12.148;2022-09-21T16:36:01;10.80;81.00
792;DHT22;379;49.022;12.148;2022-09-21T16:38:29;10.70;81.70
792;DHT22;379;49.022;12.148;2022-09-21T16:40:58;10.60;83.00
792;DHT22;379;49.022;12.148;2022-09-21T16:43:26;10.50;84.30
792;DHT22;379;49.022;12.148;2022-09-21T16:45:54;10.50;85.50
792;DHT22;379;49.022;12.148;2022-09-21T16:48:21;10.40;84.70
792;DHT22;379;49.022;12.148;2022-09-21T16:50:48;10.30;85.00
792;DHT22;379;49.022;12.148;2022-09-21T16:53:18;10.30;85.80
792;DHT22;379;49.022;12.148;2022-09-21T16:55:48;10.20;86.50
792;DHT22;379;49.022;12.148;2022-09-21T16:58:15;10.10;87.80
792;DHT22;379;49.022;12.148;2022-09-21T17:00:45;10.00;89.80
792;DHT22;379;49.022;12.148;2022-09-21T17:03:14;9.80;90.50
792;DHT22;379;49.022;12.148;2022-09-21T17:05:41;9.60;91.10
792;DHT22;379;49.022;12.148;2022-09-21T17:08:09;9.50;91.60
792;DHT22;379;49.022;12.148;2022-09-21T17:10:39;9.50;92.00
792;DHT22;379;49.022;12.148;2022-09-21T17:13:07;9.30;92.80